Time;durP1;ratioP1;P1;durP2;ratioP2;P2;SDS_P1;SDS_P2;PMS_P1;PMS_P2;Temp;Humidity;BMP_temperature;BMP_pressure;BME280_temperature;BME280_humidity;BME280_pressure;Samples;Min_cycle;Max_cycle;Signal;HPM_P1;HPM_P2
2023/10/12 00:00:27;;;;;;;;;;;;;;;-144.99;100.00;52529.63;5066465;28;19986;-67
2023/10/12 00:02:57;;;;;;;;;;;;;;;-144.99;100.00;52543.91;5057831;28;20044;-69
2023/10/12 00:05:27;;;;;;;;;;;;;;;-144.99;100.00;52545.94;5057702;28;19978;-69
2023/10/12 00:07:55;;;;;;;;;;;;;;;-144.99;100.00;52541.84;5054664;28;19937;-68
2023/10/12 00:10:23;;;;;;;;;;;;;;;-144.99;100.00;52511.28;5059960;28;20442;-68
2023/10/12 00:12:53;;;;;;;;;;;;;;;-144.99;100.00;52550.00;5054783;28;20442;-68
2023/10/12 00:15:25;;;;;;;;;;;;;;;-144.99;100.00;52558.16;5054515;28;19941;-68
2023/10/12 00:17:51;;;;;;;;;;;;;;;-144.99;100.00;52515.34;5056404;28;19969;-69
2023/10/12 00:20:22;;;;;;;;;;;;;;;-144.99;100.00;52517.41;5056104;28;19964;-70
2023/10/12 00:22:48;;;;;;;;;;;;;;;-144.99;100.00;52562.25;5057071;28;20357;-71
2023/10/12 00:25:16;;;;;;;;;;;;;;;-144.99;100.00;52533.69;5063778;28;20022;-72
2023/10/12 00:27:44;;;;;;;;;;;;;;;-144.99;100.00;52537.78;5052097;28;19947;-71
2023/10/12 00:30:12;;;;;;;;;;;;;;;-144.99;100.00;52501.09;5073776;28;19968;-64
2023/10/12 00:32:39;;;;;;;;;;;;;;;-144.99;100.00;52505.16;5046386;28;19935;-64
2023/10/12 00:35:07;;;;;;;;;;;;;;;-144.99;100.00;52558.16;5079151;28;20034;-63
2023/10/12 00:37:34;;;;;;;;;;;;;;;-144.99;100.00;52547.97;5071229;28;20349;-63
2023/10/12 00:40:22;;;;;;;;;;;;;;;-144.99;100.00;52562.25;5070789;28;19964;-63
2023/10/12 00:42:52;;;;;;;;;;;;;;;-144.99;100.00;52521.47;5072713;28;19961;-64
2023/10/12 00:45:27;;;;;;;;;;;;;;;-144.99;100.00;52576.50;5080761;28;19977;-63
2023/10/12 00:47:56;;;;;;;;;;;;;;;-144.99;100.00;52533.69;5049819;28;19943;-64
2023/10/12 00:50:23;;;;;;;;;;;;;;;-144.99;100.00;52529.63;5074811;28;20013;-72
2023/10/12 00:52:55;;;;;;;;;;;;;;;-144.99;100.00;52521.47;5080403;28;20099;-71
2023/10/12 00:55:34;;;;;;;;;;;;;;;-144.99;100.00;52525.56;5072040;28;19939;-70
2023/10/12 00:58:04;;;;;;;;;;;;;;;-144.99;100.00;52517.41;5060416;28;19935;-71
2023/10/12 01:00:35;;;;;;;;;;;;;;;-144.99;100.00;52537.78;5058469;28;19958;-71
2023/10/12 01:03:27;;;;;;;;;;;;;;;-144.99;100.00;52562.25;5058726;28;19962;-71
2023/10/12 01:06:12;;;;;;;;;;;;;;;-144.99;100.00;52533.69;5057684;28;19940;-71
2023/10/12 01:08:42;;;;;;;;;;;;;;;-144.99;100.00;52566.31;5059902;28;20006;-71
2023/10/12 01:11:09;;;;;;;;;;;;;;;-144.99;100.00;52521.47;5057497;28;19996;-71
2023/10/12 01:13:37;;;;;;;;;;;;;;;-144.99;100.00;52558.16;5082239;28;19930;-72
2023/10/12 01:16:08;;;;;;;;;;;;;;;-144.99;100.00;52529.63;5054741;28;19948;-67
2023/10/12 01:18:35;;;;;;;;;;;;;;;-144.99;100.00;52547.97;5062196;28;19943;-69
2023/10/12 01:21:11;;;;;;;;;;;;;;;-144.99;100.00;52558.16;5066980;28;19925;-69
2023/10/12 01:23:41;;;;;;;;;;;;;;;-144.99;100.00;52590.78;5057861;28;19959;-68
2023/10/12 01:26:10;;;;;;;;;;;;;;;-144.99;100.00;52521.47;5065578;28;20358;-68
2023/10/12 01:28:37;;;;;;;;;;;;;;;-144.99;100.00;52541.84;5061233;28;19938;-67
2023/10/12 01:31:04;;;;;;;;;;;;;;;-144.99;100.00;52574.47;5062578;28;19966;-69
2023/10/12 01:33:30;;;;;;;;;;;;;;;-144.99;100.00;52541.84;5069171;28;19960;-69
2023/10/12 01:35:57;;;;;;;;;;;;;;;-144.99;100.00;52560.19;5063299;28;20521;-71
2023/10/12 01:38:24;;;;;;;;;;;;;;;-144.99;100.00;52547.97;5060018;28;19961;-69
2023/10/12 01:40:55;;;;;;;;;;;;;;;-144.99;100.00;52550.00;5056434;28;19962;-69
2023/10/12 01:43:22;;;;;;;;;;;;;;;-144.99;100.00;52547.97;5059996;28;19953;-69
2023/10/12 01:45:54;;;;;;;;;;;;;;;-144.99;100.00;52594.84;5055790;28;19970;-69
2023/10/12 01:48:23;;;;;;;;;;;;;;;-144.99;100.00;52552.03;5055902;28;19941;-69
2023/10/12 01:50:49;;;;;;;;;;;;;;;-144.99;100.00;52537.78;5070404;28;19960;-68
2023/10/12 01:53:29;;;;;;;;;;;;;;;-144.99;100.00;52566.31;5078358;28;19936;-68
2023/10/12 01:55:58;;;;;;;;;;;;;;;-144.99;100.00;52592.81;5095612;28;19937;-68
2023/10/12 01:58:27;;;;;;;;;;;;;;;-144.99;100.00;52547.97;5063805;28;19943;-68
2023/10/12 02:00:54;;;;;;;;;;;;;;;-144.99;100.00;52556.13;5057813;28;19962;-68
2023/10/12 02:03:31;;;;;;;;;;;;;;;-144.99;100.00;52550.00;5060505;28;19928;-69
2023/10/12 02:06:00;;;;;;;;;;;;;;;-144.99;100.00;52574.47;5057144;28;19942;-69
2023/10/12 02:08:32;;;;;;;;;;;;;;;-144.99;100.00;52554.09;5061409;28;19986;-69
2023/10/12 02:11:06;;;;;;;;;;;;;;;-144.99;100.00;52590.78;5056407;28;20011;-69
2023/10/12 02:13:34;;;;;;;;;;;;;;;-144.99;100.00;52564.28;5057812;28;20006;-69
2023/10/12 02:16:01;;;;;;;;;;;;;;;-144.99;100.00;52558.16;5057275;28;19940;-67
2023/10/12 02:18:30;;;;;;;;;;;;;;;-144.99;100.00;52582.63;5059316;28;19959;-68
2023/10/12 02:21:10;;;;;;;;;;;;;;;-144.99;100.00;52562.25;5056695;28;20434;-68
2023/10/12 02:23:39;;;;;;;;;;;;;;;-144.99;100.00;52554.09;5060867;28;19961;-68
2023/10/12 02:26:28;;;;;;;;;;;;;;;-144.99;100.00;52550.00;5067590;28;20308;-68
2023/10/12 02:29:00;;;;;;;;;;;;;;;-144.99;100.00;52554.09;5067820;28;19983;-68
2023/10/12 02:31:28;;;;;;;;;;;;;;;-144.99;100.00;52607.09;5075535;28;19931;-68
2023/10/12 02:33:54;;;;;;;;;;;;;;;-144.99;100.00;52554.09;5070871;28;19973;-68
2023/10/12 02:36:21;;;;;;;;;;;;;;;-144.99;100.00;52541.84;5072967;28;20406;-66
2023/10/12 02:38:47;;;;;;;;;;;;;;;-144.99;100.00;52578.53;5057154;28;20391;-70
2023/10/12 02:41:15;;;;;;;;;;;;;;;-144.99;100.00;52578.53;5057702;28;19961;-70
2023/10/12 02:43:43;;;;;;;;;;;;;;;-144.99;100.00;52537.78;5055802;28;20079;-70
2023/10/12 02:46:21;;;;;;;;;;;;;;;-144.99;100.00;52566.31;5057383;28;19945;-71
2023/10/12 02:48:50;;;;;;;;;;;;;;;-144.99;100.00;52566.31;5058340;28;19947;-71
2023/10/12 02:51:17;;;;;;;;;;;;;;;-144.99;100.00;52558.16;5039526;28;20376;-74
2023/10/12 02:53:44;;;;;;;;;;;;;;;-144.99;100.00;52586.69;5058130;28;19991;-73
2023/10/12 02:56:11;;;;;;;;;;;;;;;-144.99;100.00;52562.25;5057041;28;19939;-72
2023/10/12 02:58:44;;;;;;;;;;;;;;;-144.99;100.00;52541.84;5054926;28;20018;-72
2023/10/12 03:01:16;;;;;;;;;;;;;;;-144.99;100.00;52562.25;5056865;28;19966;-64
2023/10/12 03:03:48;;;;;;;;;;;;;;;-144.99;100.00;52558.16;5058912;28;20025;-67
2023/10/12 03:06:15;;;;;;;;;;;;;;;-144.99;100.00;52562.25;5054991;28;19956;-67
2023/10/12 03:09:04;;;;;;;;;;;;;;;-144.99;100.00;52541.84;5057237;28;19949;-67
2023/10/12 03:11:32;;;;;;;;;;;;;;;-144.99;100.00;52586.69;5055874;28;20017;-67
2023/10/12 03:14:03;;;;;;;;;;;;;;;-144.99;100.00;52576.50;5054802;28;19972;-67
2023/10/12 03:16:34;;;;;;;;;;;;;;;-144.99;100.00;52550.00;5066834;28;20166;-66
2023/10/12 03:19:17;;;;;;;;;;;;;;;-144.99;100.00;52550.00;5059553;28;19948;-68
2023/10/12 03:21:46;;;;;;;;;;;;;;;-144.99;100.00;52566.31;5057665;28;20404;-67
2023/10/12 03:24:13;;;;;;;;;;;;;;;-144.99;100.00;52562.25;5061043;28;19952;-67
2023/10/12 03:26:40;;;;;;;;;;;;;;;-144.99;100.00;52574.47;5057074;28;19929;-65
2023/10/12 03:29:18;;;;;;;;;;;;;;;-144.99;100.00;52576.50;5061167;28;19982;-66
2023/10/12 03:31:53;;;;;;;;;;;;;;;-144.99;100.00;52586.69;5058509;28;19978;-66
2023/10/12 03:34:35;;;;;;;;;;;;;;;-144.99;100.00;52574.47;5056039;28;20441;-66
2023/10/12 03:37:03;;;;;;;;;;;;;;;-144.99;100.00;52511.28;5058712;28;20573;-66
2023/10/12 03:39:42;;;;;;;;;;;;;;;-144.99;100.00;52545.94;5057568;28;19978;-66
2023/10/12 03:42:12;;;;;;;;;;;;;;;-144.99;100.00;52541.84;5055376;28;19964;-67
2023/10/12 03:44:54;;;;;;;;;;;;;;;-144.99;100.00;52545.94;5057005;28;20426;-67
2023/10/12 03:47:29;;;;;;;;;;;;;;;-144.99;100.00;52562.25;5056814;28;20449;-67
2023/10/12 03:49:59;;;;;;;;;;;;;;;-144.99;100.00;52537.78;5058814;28;19964;-67
2023/10/12 03:52:30;;;;;;;;;;;;;;;-144.99;100.00;52574.47;5056555;28;20085;-67
2023/10/12 03:55:16;;;;;;;;;;;;;;;-144.99;100.00;52554.09;5056957;22;19971;-73
2023/10/12 03:57:45;;;;;;;;;;;;;;;-144.99;100.00;52586.69;5040299;28;19942;-72
2023/10/12 04:00:25;;;;;;;;;;;;;;;-144.99;100.00;52521.47;5035421;28;19966;-71
2023/10/12 04:02:58;;;;;;;;;;;;;;;-144.99;100.00;52590.78;5032935;28;20339;-73
2023/10/12 04:05:45;;;;;;;;;;;;;;;-144.99;100.00;52572.44;5029845;28;19984;-72
2023/10/12 04:11:46;;;;;;;;;;;;;;;-144.99;100.00;52576.50;5016869;28;19926;-75
2023/10/12 04:14:19;;;;;;;;;;;;;;;-144.99;100.00;52558.16;5032825;28;19960;-75
2023/10/12 04:17:07;;;;;;;;;;;;;;;-144.99;100.00;52550.00;5031840;28;20063;-75
2023/10/12 04:19:34;;;;;;;;;;;;;;;-144.99;100.00;52570.38;5042200;28;19945;-76
2023/10/12 04:22:16;;;;;;;;;;;;;;;-144.99;100.00;52545.94;5052619;28;19941;-76
2023/10/12 04:24:46;;;;;;;;;;;;;;;-144.99;100.00;52580.59;5053222;28;19992;-79
2023/10/12 04:27:38;;;;;;;;;;;;;;;-144.99;100.00;52541.84;5048777;28;19963;-75
2023/10/12 04:30:18;;;;;;;;;;;;;;;-144.99;100.00;52562.25;5062676;28;19939;-76
2023/10/12 04:32:53;;;;;;;;;;;;;;;-144.99;100.00;52550.00;5055937;28;19928;-74
2023/10/12 04:35:29;;;;;;;;;;;;;;;-144.99;100.00;52525.56;5052363;28;19961;-76
2023/10/12 04:37:56;;;;;;;;;;;;;;;-144.99;100.00;52545.94;5047592;28;19947;-74
2023/10/12 04:40:36;;;;;;;;;;;;;;;-144.99;100.00;52533.69;5047460;28;19939;-77
2023/10/12 04:43:06;;;;;;;;;;;;;;;-144.99;100.00;52588.75;5044498;28;20409;-79
2023/10/12 04:46:05;;;;;;;;;;;;;;;-144.99;100.00;52568.34;5051222;28;19981;-76
2023/10/12 04:48:22;;;;;;;;;;;;;;;-144.99;100.00;52590.78;5040429;28;19981;-76
2023/10/12 04:50:59;;;;;;;;;;;;;;;-144.99;100.00;52513.31;5049247;28;19937;-74
2023/10/12 04:53:35;;;;;;;;;;;;;;;-144.99;100.00;52558.16;5040481;28;19964;-73
2023/10/12 04:56:09;;;;;;;;;;;;;;;-144.99;100.00;52562.25;5054153;28;19997;-74
2023/10/12 04:58:36;;;;;;;;;;;;;;;-144.99;100.00;52523.50;5052368;28;19954;-74
2023/10/12 05:01:18;;;;;;;;;;;;;;;-144.99;100.00;52533.69;5051691;28;19939;-75
2023/10/12 05:04:06;;;;;;;;;;;;;;;-144.99;100.00;52554.09;5050711;28;19958;-76
2023/10/12 05:06:34;;;;;;;;;;;;;;;-144.99;100.00;52556.13;5052745;28;19997;-76
2023/10/12 05:09:10;;;;;;;;;;;;;;;-144.99;100.00;52586.69;5048371;28;20314;-77
2023/10/12 05:11:36;;;;;;;;;;;;;;;-144.99;100.00;52582.63;5049588;28;19944;-77
2023/10/12 05:14:13;;;;;;;;;;;;;;;-144.99;100.00;52570.38;5045574;28;19956;-75
2023/10/12 05:16:42;;;;;;;;;;;;;;;-144.99;100.00;52572.44;5051638;28;19990;-75
2023/10/12 05:19:10;;;;;;;;;;;;;;;-144.99;100.00;52550.00;5050124;28;19981;-76
2023/10/12 05:21:37;;;;;;;;;;;;;;;-144.99;100.00;52578.53;5052565;28;19960;-76
2023/10/12 05:24:03;;;;;;;;;;;;;;;-144.99;100.00;52568.34;5058745;28;19966;-76
2023/10/12 05:26:30;;;;;;;;;;;;;;;-144.99;100.00;52541.84;5061889;28;19940;-75
2023/10/12 05:29:17;;;;;;;;;;;;;;;-144.99;100.00;52578.53;5052253;28;20400;-76
2023/10/12 05:31:48;;;;;;;;;;;;;;;-144.99;100.00;52529.63;5052573;28;20584;-75
2023/10/12 05:34:44;;;;;;;;;;;;;;;-144.99;100.00;52517.41;5053962;28;20420;-79
2023/10/12 05:37:20;;;;;;;;;;;;;;;-144.99;100.00;52550.00;5054723;28;19978;-76
2023/10/12 05:39:47;;;;;;;;;;;;;;;-144.99;100.00;52570.38;5063299;28;19959;-77
2023/10/12 05:42:14;;;;;;;;;;;;;;;-144.99;100.00;52550.00;5063254;28;19947;-74
2023/10/12 05:44:42;;;;;;;;;;;;;;;-144.99;100.00;52519.44;5047511;28;19965;-75
2023/10/12 05:47:11;;;;;;;;;;;;;;;-144.99;100.00;52521.47;5047991;28;19946;-75
2023/10/12 05:49:40;;;;;;;;;;;;;;;-144.99;100.00;52592.81;5047269;28;19978;-75
2023/10/12 05:52:07;;;;;;;;;;;;;;;-144.99;100.00;52574.47;5055534;28;19986;-75
2023/10/12 05:54:34;;;;;;;;;;;;;;;-144.99;100.00;52578.53;5054316;28;20028;-75
2023/10/12 05:57:04;;;;;;;;;;;;;;;-144.99;100.00;52562.25;5056516;28;19941;-75
2023/10/12 05:59:30;;;;;;;;;;;;;;;-144.99;100.00;52578.53;5052757;28;19926;-75
2023/10/12 06:02:01;;;;;;;;;;;;;;;-144.99;100.00;52570.38;5054682;28;19947;-74
2023/10/12 06:04:27;;;;;;;;;;;;;;;-144.99;100.00;52574.47;5047782;28;20013;-76
2023/10/12 06:06:57;;;;;;;;;;;;;;;-144.99;100.00;52570.38;5050266;28;19974;-75
2023/10/12 06:09:24;;;;;;;;;;;;;;;-144.99;100.00;52578.53;5055467;28;19951;-76
2023/10/12 06:11:51;;;;;;;;;;;;;;;-144.99;100.00;52543.91;5075011;28;20056;-78
2023/10/12 06:14:20;;;;;;;;;;;;;;;-144.99;100.00;52582.63;5075105;28;19949;-77
2023/10/12 06:16:46;;;;;;;;;;;;;;;-144.99;100.00;52574.47;5075615;28;19971;-80
2023/10/12 06:19:23;;;;;;;;;;;;;;;-144.99;100.00;52586.69;5066816;28;19976;-79
2023/10/12 06:21:51;;;;;;;;;;;;;;;-144.99;100.00;52586.69;5063832;28;19935;-77
2023/10/12 06:24:29;;;;;;;;;;;;;;;-144.99;100.00;52562.25;5049079;28;19970;-76
2023/10/12 06:26:56;;;;;;;;;;;;;;;-144.99;100.00;52541.84;5045735;28;20010;-76
2023/10/12 06:29:26;;;;;;;;;;;;;;;-144.99;100.00;52539.81;5046733;28;20418;-75
2023/10/12 06:31:54;;;;;;;;;;;;;;;-144.99;100.00;52554.09;5037034;28;19945;-75
2023/10/12 06:34:21;;;;;;;;;;;;;;;-144.99;100.00;52550.00;5046193;28;20387;-76
2023/10/12 06:36:57;;;;;;;;;;;;;;;-144.99;100.00;52566.31;5040290;28;19947;-74
2023/10/12 06:40:08;;;;;;;;;;;;;;;-144.99;100.00;52525.56;5046738;28;19929;-77
2023/10/12 06:42:27;;;;;;;;;;;;;;;-144.99;100.00;52574.47;5050869;28;19945;-77
2023/10/12 06:44:53;;;;;;;;;;;;;;;-144.99;100.00;52547.97;5051769;28;19963;-79
2023/10/12 06:47:41;;;;;;;;;;;;;;;-144.99;100.00;52554.09;5047615;28;20026;-73
2023/10/12 06:50:14;;;;;;;;;;;;;;;-144.99;100.00;52509.25;5044432;28;19974;-74
2023/10/12 06:52:40;;;;;;;;;;;;;;;-144.99;100.00;52566.31;5049114;28;20004;-77
2023/10/12 06:55:08;;;;;;;;;;;;;;;-144.99;100.00;52554.09;5049480;28;20393;-75
2023/10/12 06:57:42;;;;;;;;;;;;;;;-144.99;100.00;52572.44;5044689;28;19953;-76
2023/10/12 07:00:29;;;;;;;;;;;;;;;-144.99;100.00;52509.25;5058415;28;19945;-76
2023/10/12 07:02:55;;;;;;;;;;;;;;;-144.99;100.00;52558.16;5045839;28;19995;-77
2023/10/12 07:05:28;;;;;;;;;;;;;;;-144.99;100.00;52554.09;5050045;28;19968;-74
2023/10/12 07:07:55;;;;;;;;;;;;;;;-144.99;100.00;52547.97;5055966;28;20394;-76
2023/10/12 07:10:28;;;;;;;;;;;;;;;-144.99;100.00;52566.31;5057100;28;19947;-74
2023/10/12 07:12:59;;;;;;;;;;;;;;;-144.99;100.00;52543.91;5068256;28;19948;-78
2023/10/12 07:15:31;;;;;;;;;;;;;;;-144.99;100.00;52529.63;5073237;28;19995;-78
2023/10/12 07:17:58;;;;;;;;;;;;;;;-144.99;100.00;52537.78;5074618;28;19956;-77
2023/10/12 07:20:40;;;;;;;;;;;;;;;-144.99;100.00;52537.78;5073161;28;20022;-77
2023/10/12 07:23:14;;;;;;;;;;;;;;;-144.99;100.00;52545.94;5058578;28;19985;-74
2023/10/12 07:25:43;;;;;;;;;;;;;;;-144.99;100.00;52515.34;5048320;28;19956;-74
2023/10/12 07:28:16;;;;;;;;;;;;;;;-144.99;100.00;52550.00;5041557;28;19986;-75
2023/10/12 07:30:44;;;;;;;;;;;;;;;-144.99;100.00;52537.78;5043879;28;20551;-74
2023/10/12 07:33:10;;;;;;;;;;;;;;;-144.99;100.00;52554.09;5044438;28;19945;-76
2023/10/12 07:35:38;;;;;;;;;;;;;;;-144.99;100.00;52537.78;5041631;28;19935;-75
2023/10/12 07:38:12;;;;;;;;;;;;;;;-144.99;100.00;52554.09;5044679;28;20481;-75
2023/10/12 07:40:48;;;;;;;;;;;;;;;-144.99;100.00;52503.13;5048662;28;19924;-73
2023/10/12 07:43:18;;;;;;;;;;;;;;;-144.99;100.00;52505.16;5046594;28;20180;-75
2023/10/12 07:45:48;;;;;;;;;;;;;;;-144.99;100.00;52505.16;5040120;28;19935;-75
2023/10/12 07:48:29;;;;;;;;;;;;;;;-144.99;100.00;52515.34;5037012;28;19944;-76
2023/10/12 07:50:56;;;;;;;;;;;;;;;-144.99;100.00;52488.84;5048005;28;19948;-74
2023/10/12 07:53:23;;;;;;;;;;;;;;;-144.99;100.00;52525.56;5056973;28;19969;-76
2023/10/12 07:55:56;;;;;;;;;;;;;;;-144.99;100.00;52503.13;5061542;28;19940;-75
2023/10/12 07:58:23;;;;;;;;;;;;;;;-144.99;100.00;52513.31;5052416;28;19943;-74
2023/10/12 08:01:02;;;;;;;;;;;;;;;-144.99;100.00;52521.47;5050326;28;20015;-76
2023/10/12 08:03:36;;;;;;;;;;;;;;;-144.99;100.00;52521.47;5051097;28;19961;-73
2023/10/12 08:06:15;;;;;;;;;;;;;;;-144.99;100.00;52517.41;5041166;28;19990;-75
2023/10/12 08:08:41;;;;;;;;;;;;;;;-144.99;100.00;52521.47;5042914;28;19946;-73
2023/10/12 08:11:18;;;;;;;;;;;;;;;-144.99;100.00;52484.78;5044864;28;20033;-75
2023/10/12 08:13:49;;;;;;;;;;;;;;;-144.99;100.00;52456.25;5040289;28;20024;-76
2023/10/12 08:16:25;;;;;;;;;;;;;;;-144.99;97.05;52480.72;5042251;28;19963;-75
2023/10/12 08:18:53;;;;;;;;;;;;;;;-144.99;96.06;52480.72;5041102;28;19940;-74
2023/10/12 08:21:24;;;;;;;;;;;;;;;-144.99;93.89;52519.44;5044150;28;20017;-74
2023/10/12 08:23:51;;;;;;;;;;;;;;;-144.99;93.20;52501.09;5038596;28;19959;-75
2023/10/12 08:26:35;;;;;;;;;;;;;;;-144.99;89.25;52476.63;5042463;28;19936;-75
2023/10/12 08:29:09;;;;;;;;;;;;;;;-144.99;88.35;52476.63;5048033;28;19947;-75
2023/10/12 08:31:36;;;;;;;;;;;;;;;-144.99;87.27;52492.94;5036456;28;21265;-75
2023/10/12 08:34:13;;;;;;;;;;;;;;;-144.99;86.83;52472.56;5040631;28;19955;-73
2023/10/12 08:36:57;;;;;;;;;;;;;;;-144.99;82.68;52435.88;5036553;28;19997;-74
2023/10/12 08:39:37;;;;;;;;;;;;;;;-144.99;81.08;52452.16;5046274;28;19947;-75
2023/10/12 08:42:29;;;;;;;;;;;;;;;-144.99;79.94;52488.84;5041009;28;20446;-74
2023/10/12 08:44:58;;;;;;;;;;;;;;;-144.99;80.06;52472.56;5038840;28;20564;-73
2023/10/12 08:47:26;;;;;;;;;;;;;;;-144.99;78.04;52501.09;5041258;28;19939;-73
2023/10/12 08:49:53;;;;;;;;;;;;;;;-144.99;78.40;52497.00;5040117;28;19935;-74
2023/10/12 08:52:26;;;;;;;;;;;;;;;-144.99;78.57;52519.44;5042873;28;19963;-74
2023/10/12 08:54:55;;;;;;;;;;;;;;;-144.99;77.90;52497.00;5042146;28;19963;-74
2023/10/12 08:57:34;;;;;;;;;;;;;;;-144.99;76.71;52480.72;5046660;28;19988;-75
2023/10/12 09:02:49;;;;;;;;;;;;;;;-144.99;76.59;52486.81;5050502;28;19929;-74
2023/10/12 09:05:24;;;;;;;;;;;;;;;-144.99;76.45;52480.72;5051472;28;19980;-77
2023/10/12 09:08:05;;;;;;;;;;;;;;;-144.99;75.63;52486.81;5046495;28;19928;-74
2023/10/12 09:10:36;;;;;;;;;;;;;;;-144.99;76.26;52501.09;5054600;28;19962;-73
2023/10/12 09:13:04;;;;;;;;;;;;;;;-144.99;76.37;52509.25;5046749;28;19967;-74
2023/10/12 09:15:45;;;;;;;;;;;;;;;-144.99;76.61;52525.56;5045448;28;20174;-75
2023/10/12 09:18:12;;;;;;;;;;;;;;;-144.99;74.79;52519.44;5039951;28;19970;-74
2023/10/12 09:20:40;;;;;;;;;;;;;;;-144.99;76.33;52517.41;5046392;28;19978;-74
2023/10/12 09:23:12;;;;;;;;;;;;;;;-144.99;76.73;52492.94;5048291;28;20050;-73
2023/10/12 09:26:14;;;;;;;;;;;;;;;-144.99;77.31;52484.78;5044061;28;20333;-74
2023/10/12 09:28:53;;;;;;;;;;;;;;;-144.99;76.67;52517.41;5049263;28;19962;-77
2023/10/12 09:31:48;;;;;;;;;;;;;;;-144.99;76.45;52484.78;5036391;28;20616;-74
2023/10/12 09:37:05;;;;;;;;;;;;;;;-144.99;73.49;52480.72;5041085;28;19983;-74
2023/10/12 09:39:34;;;;;;;;;;;;;;;-144.99;72.38;52460.31;5042990;28;20430;-76
2023/10/12 09:42:09;;;;;;;;;;;;;;;-144.99;71.76;52419.56;5047581;28;19948;-75
2023/10/12 09:44:39;;;;;;;;;;;;;;;-144.99;69.06;52403.25;5042779;28;20451;-73
2023/10/12 09:47:12;;;;;;;;;;;;;;;-144.99;68.34;52415.47;5045517;28;19960;-74
2023/10/12 09:49:44;;;;;;;;;;;;;;;-144.99;68.32;52407.31;5039812;28;19978;-74
2023/10/12 09:52:13;;;;;;;;;;;;;;;-144.99;67.08;52433.81;5044190;28;20449;-75
2023/10/12 09:54:46;;;;;;;;;;;;;;;-144.99;67.71;52423.63;5055285;22;20424;-72
2023/10/12 09:57:23;;;;;;;;;;;;;;;-144.99;67.20;52456.25;5056285;28;19959;-72
2023/10/12 09:59:53;;;;;;;;;;;;;;;-144.99;67.29;52448.09;5048925;28;20096;-72
2023/10/12 10:02:33;;;;;;;;;;;;;;;-144.99;68.94;52444.03;5072010;28;19944;-73
2023/10/12 10:05:11;;;;;;;;;;;;;;;-144.99;69.06;52448.09;5075156;28;20089;-71
2023/10/12 10:07:39;;;;;;;;;;;;;;;-144.99;69.96;52497.00;5075727;28;19974;-72
2023/10/12 10:10:16;;;;;;;;;;;;;;;-144.99;69.32;52492.94;5061260;28;20479;-72
2023/10/12 10:12:43;;;;;;;;;;;;;;;-144.99;70.24;52484.78;5061414;28;19955;-73
2023/10/12 10:15:14;;;;;;;;;;;;;;;-144.99;70.78;52484.78;5069029;28;19960;-72
2023/10/12 10:17:47;;;;;;;;;;;;;;;-144.99;70.52;52435.88;5061128;28;19925;-72
2023/10/12 10:20:56;;;;;;;;;;;;;;;-144.99;69.15;52462.34;5062199;28;19966;-71
2023/10/12 10:23:23;;;;;;;;;;;;;;;-144.99;68.74;52425.66;5068369;28;20040;-73
2023/10/12 10:25:56;;;;;;;;;;;;;;;-144.99;67.79;52403.25;5065356;28;19962;-72
2023/10/12 10:28:24;;;;;;;;;;;;;;;-144.99;67.53;52407.31;5074932;28;19943;-73
2023/10/12 10:30:52;;;;;;;;;;;;;;;-144.99;67.38;52407.31;5071574;28;20101;-72
2023/10/12 10:33:23;;;;;;;;;;;;;;;-144.99;65.07;52366.56;5066462;28;20007;-72
2023/10/12 10:36:00;;;;;;;;;;;;;;;-144.99;65.82;52382.88;5056936;28;20036;-72
2023/10/12 10:38:32;;;;;;;;;;;;;;;-144.99;65.03;52395.09;5059152;28;19931;-73
2023/10/12 10:41:05;;;;;;;;;;;;;;;-144.99;65.50;52382.88;5064193;28;19962;-73
2023/10/12 10:43:33;;;;;;;;;;;;;;;-144.99;65.22;52342.09;5060718;28;20412;-71
2023/10/12 10:46:03;;;;;;;;;;;;;;;-144.99;64.20;52309.50;5065288;28;20127;-73
2023/10/12 10:48:36;;;;;;;;;;;;;;;-144.99;62.58;52380.84;5074414;28;20037;-72
2023/10/12 10:51:11;;;;;;;;;;;;;;;-144.99;61.77;52317.66;5061168;28;19965;-71
2023/10/12 10:53:38;;;;;;;;;;;;;;;-144.99;61.07;52301.34;5065022;28;19946;-72
2023/10/12 10:56:14;;;;;;;;;;;;;;;-144.99;60.54;52368.59;5071133;28;19958;-72
2023/10/12 10:58:41;;;;;;;;;;;;;;;-144.99;61.47;52329.88;5049723;28;20031;-73
2023/10/12 11:01:12;;;;;;;;;;;;;;;-144.99;61.84;52362.50;5078713;28;20054;-72
2023/10/12 11:03:40;;;;;;;;;;;;;;;-144.99;62.35;52419.56;5064733;28;20133;-71
2023/10/12 11:06:09;;;;;;;;;;;;;;;-144.99;63.30;52452.16;5066142;28;19959;-72
2023/10/12 11:08:36;;;;;;;;;;;;;;;-144.99;65.73;52407.31;5061558;28;20108;-72
2023/10/12 11:11:26;;;;;;;;;;;;;;;-144.99;66.96;52421.59;5060357;28;20052;-72
2023/10/12 11:13:53;;;;;;;;;;;;;;;-144.99;66.86;52472.56;5067793;28;20053;-72
2023/10/12 11:16:28;;;;;;;;;;;;;;;-144.99;66.93;52444.03;5067027;28;19947;-74
2023/10/12 11:18:57;;;;;;;;;;;;;;;-144.99;67.50;52462.34;5064595;28;20001;-71
2023/10/12 11:21:25;;;;;;;;;;;;;;;-144.99;67.79;52468.47;5060809;28;20050;-72
2023/10/12 11:23:57;;;;;;;;;;;;;;;-144.99;68.35;52464.41;5070963;28;19939;-71
2023/10/12 11:26:23;;;;;;;;;;;;;;;-144.99;68.37;52444.03;5068189;28;19959;-71
2023/10/12 11:29:01;;;;;;;;;;;;;;;-144.99;69.18;52468.47;5060670;28;20022;-71
2023/10/12 11:31:31;;;;;;;;;;;;;;;-144.99;70.73;52505.16;5071903;28;20054;-71
2023/10/12 11:33:59;;;;;;;;;;;;;;;-144.99;71.54;52458.28;5062209;28;19941;-72
2023/10/12 11:36:26;;;;;;;;;;;;;;;-144.99;72.61;52501.09;5058816;28;19993;-72
2023/10/12 11:38:59;;;;;;;;;;;;;;;-144.99;73.04;52525.56;5074858;28;20023;-71
2023/10/12 11:41:27;;;;;;;;;;;;;;;-144.99;73.96;52480.72;5067645;28;20220;-72
2023/10/12 11:43:57;;;;;;;;;;;;;;;-144.99;75.00;52476.63;5069833;28;19968;-73
2023/10/12 11:46:24;;;;;;;;;;;;;;;-144.99;75.71;52519.44;5066379;28;20505;-72
2023/10/12 11:49:06;;;;;;;;;;;;;;;-144.99;76.71;52545.94;5061257;28;19942;-72
2023/10/12 11:51:39;;;;;;;;;;;;;;;-144.99;76.82;52499.06;5059401;28;20415;-71
2023/10/12 11:54:07;;;;;;;;;;;;;;;-144.99;76.02;52470.50;5075163;28;19974;-72
2023/10/12 11:56:35;;;;;;;;;;;;;;;-144.99;75.23;52456.25;5063169;28;19924;-71
2023/10/12 11:59:06;;;;;;;;;;;;;;;-144.99;73.71;52439.94;5065366;28;19971;-71
2023/10/12 12:01:33;;;;;;;;;;;;;;;-144.99;71.92;52472.56;5067140;28;20405;-72
2023/10/12 12:04:03;;;;;;;;;;;;;;;-144.99;72.03;52468.47;5065321;28;19951;-71
2023/10/12 12:06:32;;;;;;;;;;;;;;;-144.99;71.06;52362.50;5069766;28;20118;-72
2023/10/12 12:08:59;;;;;;;;;;;;;;;-144.99;68.89;52323.75;5065786;28;19932;-72
2023/10/12 12:11:31;;;;;;;;;;;;;;;-144.99;67.29;52391.03;5056840;28;20020;-72
2023/10/12 12:13:57;;;;;;;;;;;;;;;-144.99;65.43;52431.78;5067697;28;20296;-71
2023/10/12 12:16:24;;;;;;;;;;;;;;;-144.99;65.66;52419.56;5060388;28;20193;-71
2023/10/12 12:18:52;;;;;;;;;;;;;;;-144.99;65.79;52464.41;5063703;28;19966;-72
2023/10/12 12:21:29;;;;;;;;;;;;;;;-144.99;65.78;52382.88;5060978;28;20028;-71
2023/10/12 12:24:00;;;;;;;;;;;;;;;-144.99;65.32;52427.72;5058792;28;20401;-73
2023/10/12 12:26:33;;;;;;;;;;;;;;;-144.99;65.56;52435.88;5061028;28;19963;-71
2023/10/12 12:29:03;;;;;;;;;;;;;;;-144.99;65.49;52252.44;5068111;28;19960;-72
2023/10/12 12:31:32;;;;;;;;;;;;;;;-144.99;62.89;52301.34;5061657;28;20035;-71
2023/10/12 12:33:59;;;;;;;;;;;;;;;-144.99;60.86;52333.94;5066737;28;20003;-72
2023/10/12 12:36:25;;;;;;;;;;;;;;;-144.99;60.18;52199.44;5070706;28;19928;-72
2023/10/12 12:38:57;;;;;;;;;;;;;;;-144.99;57.76;52203.50;5070407;28;19924;-73
2023/10/12 12:41:24;;;;;;;;;;;;;;;-144.99;58.40;52252.44;5072507;28;19958;-72
2023/10/12 12:43:51;;;;;;;;;;;;;;;-144.99;58.21;52170.91;5064098;28;20045;-72
2023/10/12 12:46:18;;;;;;;;;;;;;;;-144.99;56.45;52211.66;5063731;28;20007;-72
2023/10/12 12:48:46;;;;;;;;;;;;;;;-144.99;55.21;52211.66;5065740;28;20324;-72
2023/10/12 12:51:15;;;;;;;;;;;;;;;-144.99;53.61;52156.63;5074560;28;20003;-72
2023/10/12 12:53:42;;;;;;;;;;;;;;;-144.99;52.73;52162.75;5072238;28;19973;-72